TVF9840 LFBO-GMAD
Flight info
| Callsign | TVF9840 |
|---|---|
| Flight time | 2h 31m |
| Altitude | 31000 |
| Route | GAUDE DCT TIVLI/N0453F350 N869 GALTO UB11 BISMI UR975 EKTAL |
| Aircraft | B738/M-SDE2E3FGHIRWXY/LB1 |
Departure
| Time | 2026-04-26 22:33 |
|---|---|
| Airport | Toulouse-Blagnac Airport (LFBO) |
Arrival
| Time | 2026-04-27 01:04 |
|---|---|
| Airport | Al Massira Airport (GMAD) |
| Time | Latitude | Longitude | Altitude | Speed | Heading |
|---|---|---|---|---|---|
| 2026-04-26 22:11 | 43.63155 | 1.36975 | 494 ft | 0 kts | 98° |
| 2026-04-26 22:19 | 43.63155 | 1.36978 | 494 ft | 2 kts | 95° |
| 2026-04-26 22:19 | 43.63170 | 1.36988 | 485 ft | 4 kts | 18° |
| 2026-04-26 22:20 | 43.63178 | 1.37010 | 486 ft | 0 kts | 258° |
| 2026-04-26 22:20 | 43.63179 | 1.37011 | 494 ft | 1 kts | 246° |
| 2026-04-26 22:24 | 43.63176 | 1.37002 | 490 ft | 3 kts | 246° |
| 2026-04-26 22:24 | 43.63165 | 1.36967 | 491 ft | 5 kts | 246° |
| 2026-04-26 22:24 | 43.63148 | 1.36906 | 487 ft | 8 kts | 251° |
| 2026-04-26 22:25 | 43.63118 | 1.36827 | 487 ft | 11 kts | 237° |
| 2026-04-26 22:25 | 43.63073 | 1.36734 | 490 ft | 13 kts | 236° |
| 2026-04-26 22:25 | 43.63012 | 1.36649 | 490 ft | 13 kts | 203° |
| 2026-04-26 22:25 | 43.62948 | 1.36633 | 489 ft | 0 kts | 181° |
| 2026-04-26 22:26 | 43.62947 | 1.36634 | 490 ft | 0 kts | 179° |
| 2026-04-26 22:26 | 43.62946 | 1.36645 | 492 ft | 2 kts | 80° |
| 2026-04-26 22:26 | 43.62972 | 1.36642 | 493 ft | 7 kts | 333° |
| 2026-04-26 22:26 | 43.63005 | 1.36626 | 492 ft | 5 kts | 32° |
| 2026-04-26 22:27 | 43.63057 | 1.36680 | 491 ft | 14 kts | 37° |
| 2026-04-26 22:27 | 43.63057 | 1.36788 | 494 ft | 17 kts | 144° |
| 2026-04-26 22:27 | 43.62960 | 1.36883 | 487 ft | 16 kts | 144° |
| 2026-04-26 22:27 | 43.62864 | 1.36978 | 492 ft | 18 kts | 144° |
| 2026-04-26 22:28 | 43.62759 | 1.37081 | 492 ft | 19 kts | 144° |
| 2026-04-26 22:28 | 43.62667 | 1.37185 | 494 ft | 15 kts | 142° |
| 2026-04-26 22:28 | 43.62588 | 1.37271 | 493 ft | 14 kts | 141° |
| 2026-04-26 22:28 | 43.62509 | 1.37354 | 488 ft | 14 kts | 148° |
| 2026-04-26 22:29 | 43.62429 | 1.37427 | 491 ft | 14 kts | 140° |
| 2026-04-26 22:29 | 43.62354 | 1.37515 | 493 ft | 15 kts | 142° |
| 2026-04-26 22:29 | 43.62267 | 1.37602 | 487 ft | 16 kts | 143° |
| 2026-04-26 22:29 | 43.62172 | 1.37700 | 493 ft | 18 kts | 143° |
| 2026-04-26 22:30 | 43.62067 | 1.37808 | 488 ft | 20 kts | 143° |
| 2026-04-26 22:30 | 43.61975 | 1.37904 | 493 ft | 17 kts | 143° |
| 2026-04-26 22:30 | 43.61874 | 1.38009 | 490 ft | 19 kts | 143° |
| 2026-04-26 22:30 | 43.61776 | 1.38112 | 489 ft | 18 kts | 143° |
| 2026-04-26 22:31 | 43.61704 | 1.38176 | 487 ft | 10 kts | 167° |
| 2026-04-26 22:31 | 43.61638 | 1.38133 | 492 ft | 12 kts | 235° |
| 2026-04-26 22:31 | 43.61593 | 1.38046 | 490 ft | 6 kts | 236° |
| 2026-04-26 22:31 | 43.61605 | 1.37980 | 484 ft | 9 kts | 314° |
| 2026-04-26 22:32 | 43.61659 | 1.37925 | 485 ft | 11 kts | 324° |
| 2026-04-26 22:32 | 43.61894 | 1.37681 | 492 ft | 77 kts | 322° |
| 2026-04-26 22:32 | 43.62501 | 1.37049 | 487 ft | 139 kts | 323° |
| 2026-04-26 22:32 | 43.63385 | 1.36117 | 701 ft | 172 kts | 322° |
| 2026-04-26 22:33 | 43.64325 | 1.35151 | 1568 ft | 167 kts | 323° |
| 2026-04-26 22:33 | 43.66288 | 1.33059 | 2515 ft | 201 kts | 322° |
| 2026-04-26 22:33 | 43.67406 | 1.31820 | 2936 ft | 208 kts | 321° |
| 2026-04-26 22:34 | 43.68575 | 1.30509 | 3175 ft | 227 kts | 317° |
| 2026-04-26 22:34 | 43.69552 | 1.28747 | 3546 ft | 240 kts | 303° |
| 2026-04-26 22:34 | 43.70537 | 1.26712 | 3673 ft | 269 kts | 306° |
| 2026-04-26 22:34 | 43.71683 | 1.24611 | 4267 ft | 275 kts | 307° |
| 2026-04-26 22:35 | 43.72603 | 1.22350 | 5192 ft | 270 kts | 284° |
| 2026-04-26 22:35 | 43.72649 | 1.19769 | 5819 ft | 275 kts | 255° |
| 2026-04-26 22:35 | 43.71841 | 1.17401 | 6628 ft | 269 kts | 235° |
| 2026-04-26 22:35 | 43.70705 | 1.15371 | 7420 ft | 267 kts | 224° |
| 2026-04-26 22:36 | 43.69199 | 1.13826 | 7969 ft | 276 kts | 206° |
| 2026-04-26 22:36 | 43.67329 | 1.13181 | 8545 ft | 281 kts | 180° |
| 2026-04-26 22:36 | 43.65407 | 1.13439 | 9427 ft | 276 kts | 173° |
| 2026-04-26 22:36 | 43.63466 | 1.13839 | 9900 ft | 288 kts | 172° |
| 2026-04-26 22:37 | 43.61464 | 1.14283 | 10400 ft | 296 kts | 172° |
| 2026-04-26 22:37 | 43.59351 | 1.14758 | 10542 ft | 318 kts | 171° |
| 2026-04-26 22:37 | 43.57094 | 1.15264 | 10698 ft | 338 kts | 171° |
| 2026-04-26 22:37 | 43.54700 | 1.15675 | 10833 ft | 356 kts | 181° |
| 2026-04-26 22:38 | 43.52246 | 1.14987 | 11184 ft | 365 kts | 204° |
| 2026-04-26 22:38 | 43.50083 | 1.13170 | 11825 ft | 364 kts | 217° |
| 2026-04-26 22:38 | 43.48063 | 1.11135 | 12486 ft | 365 kts | 217° |
| 2026-04-26 22:38 | 43.45989 | 1.09015 | 13106 ft | 369 kts | 218° |
| 2026-04-26 22:39 | 43.43915 | 1.06906 | 13703 ft | 373 kts | 217° |
| 2026-04-26 22:39 | 43.41837 | 1.04814 | 14267 ft | 376 kts | 217° |
| 2026-04-26 22:39 | 43.39722 | 1.02701 | 14950 ft | 376 kts | 217° |
| 2026-04-26 22:39 | 43.37589 | 1.00580 | 15528 ft | 380 kts | 217° |
| 2026-04-26 22:40 | 43.35431 | 0.98440 | 16062 ft | 385 kts | 217° |
| 2026-04-26 22:40 | 43.33237 | 0.96269 | 16576 ft | 390 kts | 216° |
| 2026-04-26 22:40 | 43.31022 | 0.94079 | 17113 ft | 394 kts | 216° |
| 2026-04-26 22:40 | 43.28782 | 0.91870 | 17670 ft | 398 kts | 216° |
| 2026-04-26 22:41 | 43.26519 | 0.89645 | 18224 ft | 401 kts | 216° |
| 2026-04-26 22:41 | 43.24237 | 0.87404 | 18720 ft | 405 kts | 216° |
| 2026-04-26 22:41 | 43.22713 | 0.85908 | 19024 ft | 408 kts | 216° |
| 2026-04-26 22:41 | 43.19613 | 0.82867 | 19680 ft | 412 kts | 216° |
| 2026-04-26 22:42 | 43.17273 | 0.80572 | 20170 ft | 415 kts | 216° |
| 2026-04-26 22:42 | 43.14921 | 0.78269 | 20627 ft | 418 kts | 216° |
| 2026-04-26 22:42 | 43.12656 | 0.76051 | 21077 ft | 420 kts | 216° |
| 2026-04-26 22:42 | 43.10271 | 0.73720 | 21562 ft | 423 kts | 216° |
| 2026-04-26 22:43 | 43.07869 | 0.71372 | 21992 ft | 426 kts | 216° |
| 2026-04-26 22:43 | 43.06267 | 0.69808 | 22277 ft | 428 kts | 216° |
| 2026-04-26 22:43 | 43.03833 | 0.67435 | 22725 ft | 431 kts | 215° |
| 2026-04-26 22:43 | 43.01475 | 0.64907 | 23118 ft | 434 kts | 226° |
| 2026-04-26 22:44 | 42.99730 | 0.61523 | 23482 ft | 438 kts | 244° |
| 2026-04-26 22:44 | 42.98764 | 0.57573 | 23915 ft | 439 kts | 256° |
| 2026-04-26 22:44 | 42.98055 | 0.53497 | 24282 ft | 441 kts | 257° |
| 2026-04-26 22:44 | 42.97369 | 0.49396 | 24615 ft | 444 kts | 257° |
| 2026-04-26 22:45 | 42.96677 | 0.45279 | 24956 ft | 446 kts | 257° |
| 2026-04-26 22:45 | 42.95969 | 0.41141 | 25306 ft | 448 kts | 257° |
| 2026-04-26 22:45 | 42.95245 | 0.36995 | 25647 ft | 450 kts | 257° |
| 2026-04-26 22:45 | 42.94506 | 0.32822 | 25932 ft | 454 kts | 256° |
| 2026-04-26 22:46 | 42.93755 | 0.28629 | 26258 ft | 456 kts | 256° |
| 2026-04-26 22:46 | 42.92995 | 0.24404 | 26550 ft | 459 kts | 256° |
| 2026-04-26 22:46 | 42.92232 | 0.20180 | 26893 ft | 460 kts | 256° |
| 2026-04-26 22:46 | 42.91464 | 0.15938 | 27219 ft | 461 kts | 256° |
| 2026-04-26 22:47 | 42.90692 | 0.11683 | 27487 ft | 464 kts | 256° |
| 2026-04-26 22:47 | 42.89914 | 0.07398 | 27786 ft | 466 kts | 256° |
| 2026-04-26 22:47 | 42.89133 | 0.03106 | 28124 ft | 466 kts | 256° |
| 2026-04-26 22:47 | 42.88355 | -0.01158 | 28586 ft | 464 kts | 256° |
| 2026-04-26 22:48 | 42.87582 | -0.05385 | 29017 ft | 463 kts | 256° |
| 2026-04-26 22:48 | 42.86801 | -0.09647 | 29422 ft | 462 kts | 256° |
| 2026-04-26 22:48 | 42.86087 | -0.13539 | 29781 ft | 462 kts | 256° |
| 2026-04-26 22:48 | 42.85304 | -0.17794 | 30150 ft | 461 kts | 256° |
| 2026-04-26 22:49 | 42.84645 | -0.21365 | 30467 ft | 460 kts | 256° |
| 2026-04-26 22:49 | 42.83886 | -0.25473 | 30827 ft | 458 kts | 256° |
| 2026-04-26 22:49 | 42.83109 | -0.29676 | 31159 ft | 458 kts | 256° |
| 2026-04-26 22:50 | 42.81510 | -0.38025 | 31194 ft | 455 kts | 250° |
| 2026-04-26 22:50 | 42.80075 | -0.41627 | 31207 ft | 457 kts | 231° |
| 2026-04-26 22:50 | 42.78070 | -0.44409 | 31208 ft | 459 kts | 218° |
| 2026-04-26 22:50 | 42.75330 | -0.46627 | 31199 ft | 459 kts | 202° |
| 2026-04-26 22:51 | 42.72353 | -0.48224 | 31199 ft | 460 kts | 200° |
| 2026-04-26 22:51 | 42.66330 | -0.51257 | 31197 ft | 462 kts | 200° |
| 2026-04-26 22:52 | 42.60305 | -0.54317 | 31180 ft | 462 kts | 200° |
| 2026-04-26 22:52 | 42.54288 | -0.57440 | 31184 ft | 462 kts | 201° |
| 2026-04-26 22:53 | 42.48303 | -0.60568 | 31178 ft | 460 kts | 201° |
| 2026-04-26 22:53 | 42.42346 | -0.63678 | 31166 ft | 458 kts | 201° |
| 2026-04-26 22:54 | 42.36408 | -0.66768 | 31167 ft | 456 kts | 200° |
| 2026-04-26 22:54 | 42.30489 | -0.69840 | 31155 ft | 455 kts | 201° |
| 2026-04-26 22:55 | 42.24616 | -0.72882 | 31155 ft | 454 kts | 200° |
| 2026-04-26 22:55 | 42.18675 | -0.75954 | 31147 ft | 455 kts | 201° |
| 2026-04-26 22:56 | 42.12768 | -0.79002 | 31151 ft | 455 kts | 201° |
| 2026-04-26 22:56 | 42.06854 | -0.82049 | 31142 ft | 455 kts | 201° |
| 2026-04-26 22:57 | 42.00975 | -0.85071 | 31138 ft | 455 kts | 201° |
| 2026-04-26 22:57 | 41.95050 | -0.88118 | 31136 ft | 456 kts | 201° |
| 2026-04-26 22:58 | 41.89125 | -0.91165 | 31131 ft | 456 kts | 201° |
| 2026-04-26 22:58 | 41.83199 | -0.94206 | 31127 ft | 456 kts | 201° |
| 2026-04-26 22:59 | 41.77266 | -0.97244 | 31130 ft | 456 kts | 201° |
| 2026-04-26 22:59 | 41.71331 | -1.00278 | 31132 ft | 456 kts | 201° |
| 2026-04-26 23:00 | 41.65453 | -1.03448 | 31121 ft | 455 kts | 208° |
| 2026-04-26 23:00 | 41.60188 | -1.08092 | 31127 ft | 453 kts | 216° |
| 2026-04-26 23:01 | 41.55068 | -1.12912 | 31131 ft | 452 kts | 216° |
| 2026-04-26 23:01 | 41.49859 | -1.17735 | 31133 ft | 452 kts | 216° |
| 2026-04-26 23:02 | 41.44666 | -1.22489 | 31146 ft | 453 kts | 215° |
| 2026-04-26 23:02 | 41.39473 | -1.27227 | 31155 ft | 453 kts | 215° |
| 2026-04-26 23:03 | 41.34303 | -1.31938 | 31158 ft | 453 kts | 215° |
| 2026-04-26 23:03 | 41.29094 | -1.36677 | 31163 ft | 453 kts | 215° |
| 2026-04-26 23:04 | 41.23887 | -1.41413 | 31163 ft | 453 kts | 215° |
| 2026-04-26 23:04 | 41.18678 | -1.46152 | 31163 ft | 453 kts | 215° |
| 2026-04-26 23:05 | 41.13473 | -1.50851 | 31174 ft | 453 kts | 215° |
| 2026-04-26 23:05 | 41.08253 | -1.55546 | 31180 ft | 452 kts | 215° |
| 2026-04-26 23:06 | 41.03085 | -1.60190 | 31173 ft | 452 kts | 215° |
| 2026-04-26 23:06 | 40.97888 | -1.64853 | 31176 ft | 451 kts | 215° |
| 2026-04-26 23:07 | 40.92689 | -1.69510 | 31189 ft | 451 kts | 215° |
| 2026-04-26 23:07 | 40.87492 | -1.74155 | 31188 ft | 451 kts | 215° |
| 2026-04-26 23:08 | 40.82301 | -1.78789 | 31188 ft | 451 kts | 215° |
| 2026-04-26 23:08 | 40.77092 | -1.83428 | 31186 ft | 451 kts | 215° |
| 2026-04-26 23:09 | 40.71891 | -1.88055 | 31190 ft | 451 kts | 215° |
| 2026-04-26 23:09 | 40.66686 | -1.92681 | 31193 ft | 452 kts | 214° |
| 2026-04-26 23:10 | 40.61472 | -1.97308 | 31191 ft | 452 kts | 214° |
| 2026-04-26 23:10 | 40.56258 | -2.01927 | 31188 ft | 452 kts | 214° |
| 2026-04-26 23:11 | 40.51037 | -2.06542 | 31191 ft | 452 kts | 214° |
| 2026-04-26 23:11 | 40.45831 | -2.11159 | 31190 ft | 452 kts | 215° |
| 2026-04-26 23:12 | 40.40613 | -2.15786 | 31181 ft | 452 kts | 214° |
| 2026-04-26 23:12 | 40.35396 | -2.20376 | 31184 ft | 452 kts | 214° |
| 2026-04-26 23:13 | 40.30198 | -2.24927 | 31179 ft | 452 kts | 214° |
| 2026-04-26 23:13 | 40.24971 | -2.29499 | 31167 ft | 452 kts | 214° |
| 2026-04-26 23:14 | 40.19743 | -2.34067 | 31170 ft | 451 kts | 214° |
| 2026-04-26 23:14 | 40.14529 | -2.38617 | 31174 ft | 451 kts | 214° |
| 2026-04-26 23:15 | 40.09311 | -2.43156 | 31181 ft | 450 kts | 214° |
| 2026-04-26 23:15 | 40.04095 | -2.47688 | 31170 ft | 450 kts | 214° |
| 2026-04-26 23:16 | 39.98876 | -2.52216 | 31171 ft | 450 kts | 214° |
| 2026-04-26 23:16 | 39.93670 | -2.56723 | 31175 ft | 449 kts | 214° |
| 2026-04-26 23:17 | 39.88488 | -2.61199 | 31170 ft | 449 kts | 214° |
| 2026-04-26 23:17 | 39.83280 | -2.65692 | 31170 ft | 449 kts | 214° |
| 2026-04-26 23:18 | 39.78067 | -2.70181 | 31168 ft | 449 kts | 214° |
| 2026-04-26 23:18 | 39.72854 | -2.74664 | 31172 ft | 449 kts | 214° |
| 2026-04-26 23:19 | 39.67634 | -2.79140 | 31171 ft | 449 kts | 214° |
| 2026-04-26 23:19 | 39.62411 | -2.83609 | 31168 ft | 449 kts | 214° |
| 2026-04-26 23:20 | 39.57190 | -2.88072 | 31166 ft | 449 kts | 214° |
| 2026-04-26 23:20 | 39.51998 | -2.92504 | 31158 ft | 449 kts | 214° |
| 2026-04-26 23:21 | 39.46739 | -2.96985 | 31156 ft | 450 kts | 214° |
| 2026-04-26 23:21 | 39.41543 | -3.01401 | 31154 ft | 450 kts | 213° |
| 2026-04-26 23:22 | 39.35903 | -3.04912 | 31156 ft | 451 kts | 201° |
| 2026-04-26 23:22 | 39.30000 | -3.07678 | 31148 ft | 452 kts | 200° |
| 2026-04-26 23:23 | 39.24097 | -3.10473 | 31157 ft | 452 kts | 201° |
| 2026-04-26 23:23 | 39.18194 | -3.13319 | 31153 ft | 453 kts | 201° |
| 2026-04-26 23:24 | 39.12276 | -3.16181 | 31146 ft | 454 kts | 201° |
| 2026-04-26 23:24 | 39.06350 | -3.19042 | 31147 ft | 455 kts | 201° |
| 2026-04-26 23:25 | 39.01382 | -3.21434 | 31143 ft | 455 kts | 201° |
| 2026-04-26 23:25 | 38.95443 | -3.24293 | 31141 ft | 456 kts | 201° |
| 2026-04-26 23:26 | 38.89540 | -3.27138 | 31144 ft | 456 kts | 201° |
| 2026-04-26 23:26 | 38.83562 | -3.30015 | 31142 ft | 456 kts | 201° |
| 2026-04-26 23:27 | 38.77624 | -3.32867 | 31133 ft | 456 kts | 201° |
| 2026-04-26 23:27 | 38.71725 | -3.35695 | 31136 ft | 455 kts | 201° |
| 2026-04-26 23:28 | 38.65784 | -3.38538 | 31133 ft | 455 kts | 201° |
| 2026-04-26 23:28 | 38.59856 | -3.41370 | 31124 ft | 455 kts | 201° |
| 2026-04-26 23:29 | 38.53912 | -3.44204 | 31120 ft | 455 kts | 202° |
| 2026-04-26 23:29 | 38.47969 | -3.47034 | 31132 ft | 456 kts | 202° |
| 2026-04-26 23:30 | 38.42012 | -3.49864 | 31130 ft | 457 kts | 202° |
| 2026-04-26 23:30 | 38.36044 | -3.52695 | 31125 ft | 458 kts | 202° |
| 2026-04-26 23:31 | 38.30061 | -3.55529 | 31117 ft | 459 kts | 202° |
| 2026-04-26 23:31 | 38.24072 | -3.58360 | 31113 ft | 460 kts | 202° |
| 2026-04-26 23:32 | 38.18072 | -3.61192 | 31110 ft | 460 kts | 202° |
| 2026-04-26 23:32 | 38.12122 | -3.64174 | 31092 ft | 460 kts | 205° |
| 2026-04-26 23:33 | 38.06288 | -3.67499 | 31105 ft | 459 kts | 206° |
| 2026-04-26 23:33 | 38.00468 | -3.70859 | 31095 ft | 459 kts | 206° |
| 2026-04-26 23:34 | 37.94677 | -3.74160 | 31108 ft | 459 kts | 206° |
| 2026-04-26 23:34 | 37.88832 | -3.77458 | 31093 ft | 460 kts | 206° |
| 2026-04-26 23:35 | 37.82989 | -3.80743 | 31106 ft | 459 kts | 206° |
| 2026-04-26 23:35 | 37.77147 | -3.84022 | 31091 ft | 460 kts | 206° |
| 2026-04-26 23:36 | 37.71290 | -3.87305 | 31102 ft | 460 kts | 206° |
| 2026-04-26 23:36 | 37.65434 | -3.90582 | 31104 ft | 460 kts | 206° |
| 2026-04-26 23:37 | 37.59571 | -3.93858 | 31109 ft | 461 kts | 206° |
| 2026-04-26 23:37 | 37.53706 | -3.97128 | 31109 ft | 461 kts | 206° |
| 2026-04-26 23:38 | 37.47839 | -4.00394 | 31109 ft | 461 kts | 206° |
| 2026-04-26 23:38 | 37.42011 | -4.03633 | 31115 ft | 461 kts | 206° |
| 2026-04-26 23:39 | 37.36132 | -4.06895 | 31107 ft | 461 kts | 206° |
| 2026-04-26 23:39 | 37.30251 | -4.10152 | 31109 ft | 461 kts | 206° |
| 2026-04-26 23:40 | 37.24379 | -4.13399 | 31117 ft | 461 kts | 206° |
| 2026-04-26 23:40 | 37.18507 | -4.16640 | 31118 ft | 461 kts | 206° |
| 2026-04-26 23:41 | 37.12630 | -4.19879 | 31120 ft | 461 kts | 206° |
| 2026-04-26 23:41 | 37.06749 | -4.23114 | 31117 ft | 462 kts | 206° |
| 2026-04-26 23:42 | 37.00867 | -4.26345 | 31105 ft | 461 kts | 206° |
| 2026-04-26 23:42 | 36.92052 | -4.31176 | 31116 ft | 461 kts | 206° |
| 2026-04-26 23:43 | 36.86218 | -4.34367 | 31119 ft | 460 kts | 206° |
| 2026-04-26 23:43 | 36.80399 | -4.37667 | 31121 ft | 458 kts | 211° |
| 2026-04-26 23:44 | 36.75009 | -4.41877 | 31130 ft | 456 kts | 216° |
| 2026-04-26 23:44 | 36.69701 | -4.46218 | 31129 ft | 456 kts | 215° |
| 2026-04-26 23:45 | 36.64372 | -4.50503 | 31126 ft | 456 kts | 215° |
| 2026-04-26 23:45 | 36.59025 | -4.54743 | 31129 ft | 455 kts | 214° |
| 2026-04-26 23:46 | 36.53677 | -4.58963 | 31111 ft | 455 kts | 214° |
| 2026-04-26 23:46 | 36.48336 | -4.63170 | 31115 ft | 454 kts | 214° |
| 2026-04-26 23:47 | 36.43003 | -4.67367 | 31110 ft | 454 kts | 214° |
| 2026-04-26 23:47 | 36.37660 | -4.71565 | 31111 ft | 454 kts | 214° |
| 2026-04-26 23:48 | 36.32329 | -4.75747 | 31099 ft | 453 kts | 214° |
| 2026-04-26 23:48 | 36.27000 | -4.79922 | 31101 ft | 453 kts | 214° |
| 2026-04-26 23:49 | 36.21680 | -4.84083 | 31095 ft | 452 kts | 214° |
| 2026-04-26 23:49 | 36.16365 | -4.88233 | 31091 ft | 452 kts | 214° |
| 2026-04-26 23:50 | 36.11061 | -4.92405 | 31094 ft | 451 kts | 215° |
| 2026-04-26 23:50 | 36.05788 | -4.96602 | 31092 ft | 450 kts | 213° |
| 2026-04-26 23:51 | 36.00562 | -5.00753 | 31093 ft | 449 kts | 214° |
| 2026-04-26 23:51 | 35.95311 | -5.04913 | 31095 ft | 447 kts | 214° |
| 2026-04-26 23:52 | 35.90075 | -5.09052 | 31101 ft | 446 kts | 214° |
| 2026-04-26 23:52 | 35.84846 | -5.13179 | 31085 ft | 446 kts | 214° |
| 2026-04-26 23:53 | 35.79578 | -5.17229 | 31084 ft | 446 kts | 212° |
| 2026-04-26 23:53 | 35.74246 | -5.21172 | 31086 ft | 447 kts | 213° |
| 2026-04-26 23:54 | 35.68920 | -5.25120 | 31080 ft | 447 kts | 213° |
| 2026-04-26 23:54 | 35.63591 | -5.29082 | 31069 ft | 448 kts | 212° |
| 2026-04-26 23:55 | 35.58299 | -5.33126 | 31071 ft | 448 kts | 216° |
| 2026-04-26 23:55 | 35.53246 | -5.37586 | 31087 ft | 447 kts | 217° |
| 2026-04-26 23:56 | 35.48237 | -5.42117 | 31067 ft | 447 kts | 217° |
| 2026-04-26 23:56 | 35.43218 | -5.46606 | 31059 ft | 446 kts | 217° |
| 2026-04-26 23:57 | 35.38198 | -5.51058 | 31032 ft | 445 kts | 217° |
| 2026-04-26 23:57 | 35.33183 | -5.55489 | 31016 ft | 443 kts | 216° |
| 2026-04-26 23:58 | 35.28177 | -5.59902 | 30998 ft | 443 kts | 216° |
| 2026-04-26 23:58 | 35.23179 | -5.64304 | 30961 ft | 442 kts | 216° |
| 2026-04-26 23:59 | 35.18189 | -5.68692 | 30962 ft | 442 kts | 216° |
| 2026-04-26 23:59 | 35.13221 | -5.73055 | 30959 ft | 443 kts | 216° |
| 2026-04-27 00:00 | 35.08212 | -5.77447 | 30942 ft | 444 kts | 215° |
| 2026-04-27 00:00 | 35.03190 | -5.81843 | 30930 ft | 445 kts | 215° |
| 2026-04-27 00:01 | 34.98146 | -5.86252 | 30920 ft | 446 kts | 215° |
| 2026-04-27 00:01 | 34.93086 | -5.90669 | 30924 ft | 447 kts | 215° |
| 2026-04-27 00:02 | 34.88081 | -5.95175 | 30909 ft | 448 kts | 218° |
| 2026-04-27 00:02 | 34.83253 | -5.99987 | 30906 ft | 448 kts | 219° |
| 2026-04-27 00:03 | 34.78444 | -6.04832 | 30901 ft | 448 kts | 219° |
| 2026-04-27 00:03 | 34.73618 | -6.09635 | 30901 ft | 447 kts | 218° |
| 2026-04-27 00:04 | 34.68820 | -6.14377 | 30895 ft | 447 kts | 218° |
| 2026-04-27 00:04 | 34.63999 | -6.19131 | 30899 ft | 446 kts | 218° |
| 2026-04-27 00:05 | 34.59185 | -6.23874 | 30894 ft | 445 kts | 218° |
| 2026-04-27 00:05 | 34.54368 | -6.28613 | 30890 ft | 445 kts | 218° |
| 2026-04-27 00:06 | 34.49339 | -6.32952 | 30888 ft | 443 kts | 207° |
| 2026-04-27 00:06 | 34.43560 | -6.35486 | 30902 ft | 442 kts | 195° |
| 2026-04-27 00:07 | 34.38617 | -6.37149 | 30892 ft | 443 kts | 195° |
| 2026-04-27 00:07 | 34.32689 | -6.39169 | 30894 ft | 443 kts | 195° |
| 2026-04-27 00:08 | 34.26756 | -6.41232 | 30897 ft | 443 kts | 196° |
| 2026-04-27 00:08 | 34.20836 | -6.43301 | 30901 ft | 443 kts | 196° |
| 2026-04-27 00:09 | 34.14922 | -6.45366 | 30901 ft | 443 kts | 196° |
| 2026-04-27 00:09 | 34.08997 | -6.47430 | 30909 ft | 443 kts | 196° |
| 2026-04-27 00:10 | 34.03077 | -6.49489 | 30905 ft | 443 kts | 196° |
| 2026-04-27 00:10 | 33.97356 | -6.52167 | 30909 ft | 442 kts | 210° |
| 2026-04-27 00:11 | 33.92498 | -6.56696 | 30920 ft | 443 kts | 224° |
| 2026-04-27 00:11 | 33.88127 | -6.61930 | 30911 ft | 443 kts | 224° |
| 2026-04-27 00:12 | 33.83747 | -6.67143 | 30915 ft | 443 kts | 224° |
| 2026-04-27 00:12 | 33.79334 | -6.72324 | 30919 ft | 443 kts | 223° |
| 2026-04-27 00:13 | 33.74947 | -6.77450 | 30924 ft | 442 kts | 224° |
| 2026-04-27 00:13 | 33.70542 | -6.82591 | 30929 ft | 440 kts | 224° |
| 2026-04-27 00:14 | 33.66357 | -6.87929 | 30918 ft | 439 kts | 235° |
| 2026-04-27 00:14 | 33.63796 | -6.94562 | 30925 ft | 441 kts | 255° |
| 2026-04-27 00:15 | 33.62639 | -7.01782 | 30931 ft | 440 kts | 258° |
| 2026-04-27 00:15 | 33.61560 | -7.09009 | 30937 ft | 440 kts | 258° |
| 2026-04-27 00:16 | 33.60437 | -7.16225 | 30940 ft | 440 kts | 258° |
| 2026-04-27 00:16 | 33.59287 | -7.23432 | 30949 ft | 441 kts | 257° |
| 2026-04-27 00:17 | 33.58124 | -7.30656 | 30940 ft | 442 kts | 257° |
| 2026-04-27 00:17 | 33.56953 | -7.37903 | 30941 ft | 443 kts | 257° |
| 2026-04-27 00:18 | 33.55777 | -7.45167 | 30939 ft | 444 kts | 257° |
| 2026-04-27 00:18 | 33.54594 | -7.52444 | 30941 ft | 445 kts | 257° |
| 2026-04-27 00:19 | 33.53406 | -7.59729 | 30942 ft | 446 kts | 257° |
| 2026-04-27 00:19 | 33.51387 | -7.66649 | 30952 ft | 440 kts | 233° |
| 2026-04-27 00:20 | 33.49352 | -7.69374 | 30932 ft | 439 kts | 219° |
| 2026-04-27 00:20 | 33.46827 | -7.71409 | 30953 ft | 438 kts | 210° |
| 2026-04-27 00:20 | 33.41510 | -7.74880 | 30932 ft | 438 kts | 208° |
| 2026-04-27 00:21 | 33.36136 | -7.78338 | 30934 ft | 437 kts | 209° |
| 2026-04-27 00:21 | 33.30805 | -7.81833 | 30934 ft | 436 kts | 209° |
| 2026-04-27 00:22 | 33.25500 | -7.85342 | 30935 ft | 435 kts | 210° |
| 2026-04-27 00:22 | 33.20214 | -7.88840 | 30935 ft | 434 kts | 210° |
| 2026-04-27 00:23 | 33.14930 | -7.92330 | 30932 ft | 433 kts | 210° |
| 2026-04-27 00:23 | 33.09652 | -7.95810 | 30932 ft | 433 kts | 210° |
| 2026-04-27 00:24 | 33.04377 | -7.99285 | 30929 ft | 433 kts | 210° |
| 2026-04-27 00:24 | 32.99132 | -8.02735 | 30925 ft | 433 kts | 209° |
| 2026-04-27 00:25 | 32.93852 | -8.06196 | 30927 ft | 434 kts | 208° |
| 2026-04-27 00:25 | 32.88286 | -8.09018 | 30919 ft | 435 kts | 201° |
| 2026-04-27 00:26 | 32.82621 | -8.11551 | 30924 ft | 435 kts | 202° |
| 2026-04-27 00:26 | 32.76978 | -8.14150 | 30921 ft | 435 kts | 202° |
| 2026-04-27 00:27 | 32.71332 | -8.16781 | 30924 ft | 436 kts | 202° |
| 2026-04-27 00:27 | 32.65691 | -8.19413 | 30920 ft | 436 kts | 202° |
| 2026-04-27 00:28 | 32.60043 | -8.22046 | 30914 ft | 436 kts | 202° |
| 2026-04-27 00:28 | 32.54398 | -8.24675 | 30920 ft | 436 kts | 202° |
| 2026-04-27 00:29 | 32.48747 | -8.27302 | 30917 ft | 436 kts | 202° |
| 2026-04-27 00:29 | 32.43092 | -8.29927 | 30915 ft | 436 kts | 202° |
| 2026-04-27 00:30 | 32.37436 | -8.32550 | 30915 ft | 436 kts | 202° |
| 2026-04-27 00:30 | 32.31777 | -8.35170 | 30919 ft | 436 kts | 202° |
| 2026-04-27 00:31 | 32.26118 | -8.37787 | 30917 ft | 436 kts | 202° |
| 2026-04-27 00:31 | 32.20460 | -8.40400 | 30911 ft | 436 kts | 201° |
| 2026-04-27 00:32 | 32.14813 | -8.43005 | 30916 ft | 435 kts | 201° |
| 2026-04-27 00:32 | 32.09164 | -8.45623 | 30908 ft | 435 kts | 203° |
| 2026-04-27 00:33 | 32.03717 | -8.48633 | 30909 ft | 435 kts | 206° |
| 2026-04-27 00:33 | 31.98261 | -8.51808 | 30909 ft | 434 kts | 206° |
| 2026-04-27 00:34 | 31.92839 | -8.54935 | 30904 ft | 434 kts | 206° |
| 2026-04-27 00:34 | 31.87403 | -8.58037 | 30900 ft | 434 kts | 206° |
| 2026-04-27 00:35 | 31.82004 | -8.61104 | 30898 ft | 434 kts | 206° |
| 2026-04-27 00:35 | 31.76573 | -8.64184 | 30899 ft | 433 kts | 206° |
| 2026-04-27 00:36 | 31.71135 | -8.67266 | 30901 ft | 433 kts | 206° |
| 2026-04-27 00:36 | 31.65714 | -8.70334 | 30901 ft | 433 kts | 206° |
| 2026-04-27 00:37 | 31.60287 | -8.73403 | 30907 ft | 433 kts | 206° |
| 2026-04-27 00:37 | 31.54860 | -8.76467 | 30910 ft | 433 kts | 206° |
| 2026-04-27 00:38 | 31.49405 | -8.79453 | 30907 ft | 433 kts | 204° |
| 2026-04-27 00:38 | 31.43849 | -8.82191 | 30913 ft | 433 kts | 203° |
| 2026-04-27 00:39 | 31.38294 | -8.84905 | 30917 ft | 433 kts | 203° |
| 2026-04-27 00:39 | 31.32751 | -8.87647 | 30915 ft | 433 kts | 203° |
| 2026-04-27 00:40 | 31.27207 | -8.90404 | 30921 ft | 433 kts | 203° |
| 2026-04-27 00:40 | 31.21673 | -8.93156 | 30919 ft | 433 kts | 203° |
| 2026-04-27 00:41 | 31.16139 | -8.95903 | 30933 ft | 430 kts | 203° |
| 2026-04-27 00:41 | 31.10629 | -8.98634 | 30921 ft | 429 kts | 203° |
| 2026-04-27 00:42 | 31.05147 | -9.01348 | 30928 ft | 427 kts | 203° |
| 2026-04-27 00:42 | 30.99684 | -9.04051 | 30922 ft | 426 kts | 203° |
| 2026-04-27 00:43 | 30.94241 | -9.06768 | 30915 ft | 425 kts | 204° |
| 2026-04-27 00:43 | 30.88877 | -9.09449 | 30467 ft | 417 kts | 203° |
| 2026-04-27 00:44 | 30.86166 | -9.10802 | 29674 ft | 420 kts | 203° |
| 2026-04-27 00:44 | 30.83494 | -9.12134 | 28646 ft | 426 kts | 203° |
| 2026-04-27 00:44 | 30.81110 | -9.13322 | 27682 ft | 433 kts | 203° |
| 2026-04-27 00:44 | 30.78952 | -9.14396 | 26862 ft | 437 kts | 202° |
| 2026-04-27 00:45 | 30.76175 | -9.15778 | 25836 ft | 442 kts | 202° |
| 2026-04-27 00:45 | 30.73331 | -9.17193 | 24926 ft | 445 kts | 202° |
| 2026-04-27 00:45 | 30.70490 | -9.18604 | 24276 ft | 441 kts | 202° |
| 2026-04-27 00:45 | 30.67720 | -9.20006 | 24127 ft | 425 kts | 203° |
| 2026-04-27 00:46 | 30.65092 | -9.21363 | 23990 ft | 403 kts | 203° |
| 2026-04-27 00:46 | 30.62597 | -9.22655 | 23882 ft | 383 kts | 203° |
| 2026-04-27 00:46 | 30.60218 | -9.23880 | 23775 ft | 365 kts | 203° |
| 2026-04-27 00:46 | 30.57951 | -9.25043 | 23685 ft | 348 kts | 202° |
| 2026-04-27 00:47 | 30.55662 | -9.25641 | 23485 ft | 334 kts | 177° |
| 2026-04-27 00:47 | 30.53462 | -9.24930 | 23034 ft | 331 kts | 149° |
| 2026-04-27 00:47 | 30.51824 | -9.23065 | 22418 ft | 336 kts | 121° |
| 2026-04-27 00:47 | 30.51098 | -9.20478 | 21823 ft | 340 kts | 104° |
| 2026-04-27 00:48 | 30.50681 | -9.17786 | 21220 ft | 340 kts | 102° |
| 2026-04-27 00:48 | 30.50312 | -9.15017 | 20064 ft | 357 kts | 101° |
| 2026-04-27 00:48 | 30.50063 | -9.13105 | 19300 ft | 368 kts | 101° |
| 2026-04-27 00:48 | 30.49678 | -9.10137 | 18439 ft | 373 kts | 101° |
| 2026-04-27 00:49 | 30.49294 | -9.07170 | 17744 ft | 371 kts | 101° |
| 2026-04-27 00:49 | 30.48915 | -9.04234 | 17132 ft | 365 kts | 101° |
| 2026-04-27 00:49 | 30.48541 | -9.01347 | 16538 ft | 360 kts | 101° |
| 2026-04-27 00:49 | 30.48167 | -8.98493 | 15920 ft | 356 kts | 101° |
| 2026-04-27 00:50 | 30.47794 | -8.95678 | 15306 ft | 352 kts | 101° |
| 2026-04-27 00:50 | 30.47043 | -8.90132 | 14144 ft | 344 kts | 101° |
| 2026-04-27 00:50 | 30.46665 | -8.87397 | 13555 ft | 341 kts | 101° |
| 2026-04-27 00:51 | 30.46287 | -8.84707 | 12954 ft | 336 kts | 101° |
| 2026-04-27 00:51 | 30.45912 | -8.82052 | 12374 ft | 331 kts | 101° |
| 2026-04-27 00:51 | 30.45542 | -8.79439 | 11814 ft | 327 kts | 101° |
| 2026-04-27 00:51 | 30.45173 | -8.76849 | 11254 ft | 323 kts | 101° |
| 2026-04-27 00:52 | 30.44810 | -8.74303 | 10698 ft | 318 kts | 101° |
| 2026-04-27 00:52 | 30.44449 | -8.71783 | 10163 ft | 314 kts | 101° |
| 2026-04-27 00:52 | 30.44089 | -8.69310 | 9788 ft | 304 kts | 103° |
| 2026-04-27 00:52 | 30.43296 | -8.67148 | 9648 ft | 285 kts | 130° |
| 2026-04-27 00:53 | 30.41739 | -8.65865 | 9380 ft | 275 kts | 160° |
| 2026-04-27 00:53 | 30.39839 | -8.65739 | 8858 ft | 280 kts | 192° |
| 2026-04-27 00:53 | 30.38128 | -8.66845 | 8278 ft | 290 kts | 224° |
| 2026-04-27 00:53 | 30.37160 | -8.68885 | 7822 ft | 295 kts | 255° |
| 2026-04-27 00:54 | 30.36896 | -8.71235 | 7415 ft | 293 kts | 264° |
| 2026-04-27 00:54 | 30.36757 | -8.73591 | 6939 ft | 294 kts | 264° |
| 2026-04-27 00:54 | 30.36570 | -8.75921 | 6659 ft | 286 kts | 261° |
| 2026-04-27 00:54 | 30.36331 | -8.78177 | 6420 ft | 280 kts | 261° |
| 2026-04-27 00:55 | 30.36090 | -8.80373 | 6184 ft | 278 kts | 261° |
| 2026-04-27 00:55 | 30.35851 | -8.82586 | 5927 ft | 277 kts | 261° |
| 2026-04-27 00:55 | 30.35615 | -8.84793 | 5686 ft | 276 kts | 262° |
| 2026-04-27 00:55 | 30.35384 | -8.86994 | 5444 ft | 275 kts | 262° |
| 2026-04-27 00:56 | 30.35156 | -8.89187 | 5203 ft | 274 kts | 262° |
| 2026-04-27 00:56 | 30.34931 | -8.91369 | 4965 ft | 273 kts | 263° |
| 2026-04-27 00:56 | 30.34708 | -8.93549 | 4732 ft | 272 kts | 263° |
| 2026-04-27 00:56 | 30.34485 | -8.95719 | 4476 ft | 271 kts | 263° |
| 2026-04-27 00:57 | 30.34265 | -8.97876 | 4236 ft | 270 kts | 263° |
| 2026-04-27 00:57 | 30.34044 | -9.00031 | 3992 ft | 269 kts | 263° |
| 2026-04-27 00:57 | 30.33825 | -9.02176 | 3749 ft | 267 kts | 263° |
| 2026-04-27 00:57 | 30.33606 | -9.04304 | 3507 ft | 265 kts | 263° |
| 2026-04-27 00:58 | 30.33390 | -9.06411 | 3261 ft | 262 kts | 263° |
| 2026-04-27 00:58 | 30.33175 | -9.08499 | 3017 ft | 260 kts | 263° |
| 2026-04-27 00:58 | 30.32963 | -9.10566 | 2806 ft | 255 kts | 263° |
| 2026-04-27 00:58 | 30.32760 | -9.12540 | 2738 ft | 240 kts | 263° |
| 2026-04-27 00:59 | 30.32568 | -9.14405 | 2616 ft | 227 kts | 262° |
| 2026-04-27 00:59 | 30.32385 | -9.16175 | 2500 ft | 215 kts | 262° |
| 2026-04-27 00:59 | 30.32212 | -9.17843 | 2481 ft | 205 kts | 262° |
| 2026-04-27 00:59 | 30.32044 | -9.19467 | 2478 ft | 202 kts | 262° |
| 2026-04-27 01:00 | 30.31884 | -9.21064 | 2492 ft | 195 kts | 264° |
| 2026-04-27 01:00 | 30.31829 | -9.22593 | 2480 ft | 186 kts | 269° |
| 2026-04-27 01:00 | 30.31857 | -9.24062 | 2483 ft | 183 kts | 271° |
| 2026-04-27 01:00 | 30.31894 | -9.25525 | 2483 ft | 182 kts | 270° |
| 2026-04-27 01:01 | 30.31928 | -9.26965 | 2407 ft | 174 kts | 270° |
| 2026-04-27 01:01 | 30.31959 | -9.28331 | 2151 ft | 165 kts | 270° |
| 2026-04-27 01:01 | 30.31990 | -9.29626 | 1943 ft | 158 kts | 270° |
| 2026-04-27 01:01 | 30.32019 | -9.30888 | 1741 ft | 156 kts | 270° |
| 2026-04-27 01:02 | 30.32048 | -9.32141 | 1533 ft | 156 kts | 270° |
| 2026-04-27 01:02 | 30.32078 | -9.33393 | 1329 ft | 156 kts | 270° |
| 2026-04-27 01:02 | 30.32102 | -9.34653 | 1162 ft | 156 kts | 270° |
| 2026-04-27 01:02 | 30.32117 | -9.35930 | 878 ft | 160 kts | 270° |
| 2026-04-27 01:03 | 30.32154 | -9.37205 | 697 ft | 157 kts | 271° |
| 2026-04-27 01:03 | 30.32194 | -9.38464 | 469 ft | 156 kts | 270° |
| 2026-04-27 01:03 | 30.32223 | -9.39702 | 267 ft | 150 kts | 270° |
| 2026-04-27 01:03 | 30.32251 | -9.40785 | 238 ft | 114 kts | 272° |
| 2026-04-27 01:04 | 30.32264 | -9.41527 | 229 ft | 70 kts | 273° |
| 2026-04-27 01:04 | 30.32280 | -9.41894 | 219 ft | 36 kts | 272° |
| 2026-04-27 01:04 | 30.32286 | -9.42177 | 214 ft | 35 kts | 270° |
| 2026-04-27 01:04 | 30.32291 | -9.42455 | 212 ft | 35 kts | 273° |
| 2026-04-27 01:05 | 30.32297 | -9.42657 | 208 ft | 9 kts | 271° |
| 2026-04-27 01:05 | 30.32310 | -9.42743 | 211 ft | 12 kts | 295° |
| 2026-04-27 01:05 | 30.32389 | -9.42788 | 207 ft | 14 kts | 1° |
| 2026-04-27 01:05 | 30.32491 | -9.42785 | 206 ft | 9 kts | 1° |
| 2026-04-27 01:06 | 30.32516 | -9.42754 | 214 ft | 6 kts | 83° |
| 2026-04-27 01:06 | 30.32517 | -9.42708 | 215 ft | 6 kts | 90° |
| 2026-04-27 01:06 | 30.32518 | -9.42654 | 208 ft | 8 kts | 90° |
| 2026-04-27 01:06 | 30.32910 | -9.41105 | 238 ft | 0 kts | 312° |